Time;durP1;ratioP1;P1;durP2;ratioP2;P2;SDS_P1;SDS_P2;PMS_P1;PMS_P2;Temp;Humidity;BMP_temperature;BMP_pressure;BME280_temperature;BME280_humidity;BME280_pressure;Samples;Min_cycle;Max_cycle;Signal;HPM_P1;HPM_P2
2023/03/20 00:00:32;;;;;;;9.50;5.18;;;;;15.30;101756.00;;;;5085851;28;20225;-75
2023/03/20 00:02:59;;;;;;;6.70;4.40;;;;;15.30;101757.00;;;;5084188;28;20198;-75
2023/03/20 00:05:28;;;;;;;7.00;4.93;;;;;15.30;101754.00;;;;5081399;28;20207;-75
2023/03/20 00:07:57;;;;;;;12.77;5.95;;;;;15.30;101754.00;;;;5076107;28;20198;-77
2023/03/20 00:10:31;;;;;;;8.20;5.45;;;;;15.20;101757.00;;;;5081220;28;20213;-76
2023/03/20 00:13:00;;;;;;;8.00;5.07;;;;;15.20;101755.00;;;;5080373;28;20575;-77
2023/03/20 00:15:31;;;;;;;12.15;5.55;;;;;15.20;101756.00;;;;5078693;28;20198;-76
2023/03/20 00:17:59;;;;;;;8.18;5.30;;;;;15.20;101751.00;;;;5084047;28;20624;-74
2023/03/20 00:20:26;;;;;;;8.98;5.53;;;;;15.20;101761.00;;;;5084938;28;20224;-74
2023/03/20 00:22:54;;;;;;;7.05;5.10;;;;;15.20;101750.00;;;;5078496;28;20668;-74
2023/03/20 00:25:25;;;;;;;9.25;5.63;;;;;15.20;101744.00;;;;5084504;28;20199;-75
2023/03/20 00:27:53;;;;;;;9.05;5.38;;;;;15.20;101740.00;;;;5083157;28;20198;-75
2023/03/20 00:30:28;;;;;;;6.82;5.10;;;;;15.20;101735.00;;;;5086280;28;20189;-75
2023/03/20 00:32:57;;;;;;;8.85;5.38;;;;;15.20;101734.00;;;;5089569;28;20197;-75
2023/03/20 00:35:28;;;;;;;10.15;5.60;;;;;15.20;101739.00;;;;5087888;28;20211;-75
2023/03/20 00:37:56;;;;;;;7.15;4.78;;;;;15.20;101727.00;;;;5089850;28;20202;-75
2023/03/20 00:40:27;;;;;;;9.20;4.95;;;;;15.20;101741.00;;;;5086919;28;20278;-75
2023/03/20 00:42:59;;;;;;;8.93;4.60;;;;;15.20;101738.00;;;;5084883;28;20199;-75
2023/03/20 00:45:28;;;;;;;8.98;4.38;;;;;15.10;101743.00;;;;5086187;28;20197;-74
2023/03/20 00:47:57;;;;;;;9.38;4.65;;;;;15.10;101755.00;;;;5081420;28;20226;-75
2023/03/20 00:50:27;;;;;;;6.32;4.05;;;;;15.20;101748.00;;;;5089978;28;20198;-75
2023/03/20 00:52:55;;;;;;;9.48;5.53;;;;;15.10;101754.00;;;;5086734;28;20190;-75
2023/03/20 00:55:26;;;;;;;9.85;5.10;;;;;15.10;101767.00;;;;5091422;28;20190;-75
2023/03/20 00:57:56;;;;;;;5.10;3.63;;;;;15.10;101776.00;;;;5072929;28;20206;-74
2023/03/20 01:00:30;;;;;;;6.00;3.72;;;;;15.00;101783.00;;;;5089679;28;20253;-74
2023/03/20 01:02:59;;;;;;;6.70;3.97;;;;;15.00;101774.00;;;;5090518;28;20754;-74
2023/03/20 01:05:28;;;;;;;5.40;3.47;;;;;15.00;101791.00;;;;5090171;28;20620;-75
2023/03/20 01:07:55;;;;;;;4.82;2.88;;;;;15.00;101790.00;;;;5089690;28;20230;-75
2023/03/20 01:10:33;;;;;;;4.65;2.67;;;;;14.90;101794.00;;;;5090330;28;20202;-75
2023/03/20 01:13:01;;;;;;;5.22;3.33;;;;;15.00;101793.00;;;;5086296;28;20198;-75
2023/03/20 01:15:33;;;;;;;12.27;3.33;;;;;14.90;101784.00;;;;5086746;28;20198;-74
2023/03/20 01:18:00;;;;;;;6.32;3.30;;;;;14.90;101765.00;;;;5090756;28;20202;-74
2023/03/20 01:20:30;;;;;;;5.28;2.63;;;;;14.90;101768.00;;;;5088349;28;20218;-75
2023/03/20 01:22:57;;;;;;;4.20;2.72;;;;;14.90;101771.00;;;;5088977;28;20898;-75
2023/03/20 01:25:25;;;;;;;4.45;2.55;;;;;14.90;101779.00;;;;5089003;28;20198;-75
2023/03/20 01:27:54;;;;;;;4.53;2.40;;;;;14.90;101780.00;;;;5087037;28;20205;-75
2023/03/20 01:30:24;;;;;;;3.25;2.58;;;;;14.90;101773.00;;;;5086406;28;20198;-75
2023/03/20 01:32:53;;;;;;;4.43;2.55;;;;;14.80;101775.00;;;;5088147;28;20568;-75
2023/03/20 01:35:22;;;;;;;4.35;2.72;;;;;14.80;101778.00;;;;5087536;28;20190;-74
2023/03/20 01:37:51;;;;;;;3.80;2.55;;;;;14.80;101767.00;;;;5087817;28;20209;-75
2023/03/20 01:40:33;;;;;;;6.38;2.70;;;;;14.70;101766.00;;;;5088049;28;20221;-75
2023/03/20 01:43:02;;;;;;;4.13;2.70;;;;;14.80;101765.00;;;;5084311;28;20230;-74
2023/03/20 01:45:33;;;;;;;6.18;3.00;;;;;14.80;101771.00;;;;5083985;28;20195;-75
2023/03/20 01:48:12;;;;;;;7.75;2.63;;;;;14.80;101777.00;;;;5083625;28;20202;-75
2023/03/20 01:50:39;;;;;;;3.92;2.75;;;;;14.80;101771.00;;;;5089133;28;20209;-75
2023/03/20 01:53:12;;;;;;;4.63;2.70;;;;;14.70;101764.00;;;;5088653;28;20194;-75
2023/03/20 01:55:41;;;;;;;5.97;3.25;;;;;14.80;101755.00;;;;5085080;28;20194;-75
2023/03/20 01:58:14;;;;;;;4.75;2.72;;;;;14.80;101757.00;;;;5087168;28;20209;-75
2023/03/20 02:00:41;;;;;;;3.85;2.50;;;;;14.70;101750.00;;;;5087774;28;20595;-75
2023/03/20 02:03:10;;;;;;;5.25;3.03;;;;;14.70;101765.00;;;;5089734;28;20194;-75
2023/03/20 02:05:38;;;;;;;5.20;2.60;;;;;14.70;101766.00;;;;5074001;28;20213;-75
2023/03/20 02:08:28;;;;;;;4.13;3.15;;;;;14.60;101766.00;;;;5070322;28;20273;-75
2023/03/20 02:10:58;;;;;;;4.63;2.67;;;;;14.70;101766.00;;;;5082860;28;20209;-75
2023/03/20 02:13:27;;;;;;;3.72;2.65;;;;;14.60;101771.00;;;;5080318;28;20198;-74
2023/03/20 02:16:04;;;;;;;4.75;3.20;;;;;14.60;101769.00;;;;5084608;28;20209;-74
2023/03/20 02:18:33;;;;;;;6.10;2.90;;;;;14.70;101769.00;;;;5087081;28;20195;-75
2023/03/20 02:21:29;;;;;;;4.50;2.75;;;;;14.60;101776.00;;;;5087017;28;20218;-74
2023/03/20 02:24:30;;;;;;;6.22;3.60;;;;;14.50;101761.00;;;;5086817;28;20190;-75
2023/03/20 02:27:09;;;;;;;5.45;3.42;;;;;14.50;101750.00;;;;5080107;28;20255;-75
2023/03/20 02:30:15;;;;;;;5.05;2.80;;;;;14.50;101746.00;;;;5085133;28;20226;-75
2023/03/20 02:33:28;;;;;;;8.80;4.10;;;;;14.40;101743.00;;;;5087360;28;20198;-75
2023/03/20 02:36:26;;;;;;;6.75;3.92;;;;;14.40;101745.00;;;;5063382;28;20198;-74
2023/03/20 02:39:08;;;;;;;9.15;4.50;;;;;14.40;101747.00;;;;5079569;28;20202;-75
2023/03/20 02:41:40;;;;;;;7.32;4.47;;;;;14.40;101742.00;;;;5085705;28;20222;-75
2023/03/20 02:44:13;;;;;;;6.68;4.70;;;;;14.40;101743.00;;;;5085574;28;20194;-75
2023/03/20 02:46:52;;;;;;;8.02;4.97;;;;;14.40;101747.00;;;;5086582;28;20197;-74
2023/03/20 02:49:45;;;;;;;7.68;5.05;;;;;14.30;101746.00;;;;5088846;28;20209;-75
2023/03/20 02:52:20;;;;;;;11.60;6.13;;;;;14.40;101750.00;;;;5084015;28;20194;-74
2023/03/20 02:54:57;;;;;;;9.70;6.53;;;;;14.40;101750.00;;;;5082531;28;20197;-75
2023/03/20 02:57:38;;;;;;;8.30;5.57;;;;;14.30;101736.00;;;;5084037;28;20198;-75
2023/03/20 03:00:10;;;;;;;10.48;6.47;;;;;14.40;101731.00;;;;5085422;28;20657;-75
2023/03/20 03:02:40;;;;;;;11.52;6.30;;;;;14.40;101704.00;;;;5088673;28;20186;-75
2023/03/20 03:05:13;;;;;;;10.73;7.20;;;;;14.30;101698.00;;;;5087718;28;20206;-75
2023/03/20 03:07:45;;;;;;;11.02;6.57;;;;;14.30;101700.00;;;;5087925;28;20197;-74
2023/03/20 03:10:21;;;;;;;12.45;6.97;;;;;14.30;101693.00;;;;5088291;28;20208;-75
2023/03/20 03:12:51;;;;;;;13.27;6.38;;;;;14.30;101685.00;;;;5077886;28;20194;-75
2023/03/20 03:15:25;;;;;;;12.88;7.50;;;;;14.20;101687.00;;;;5068494;28;20684;-74
2023/03/20 03:17:52;;;;;;;11.68;7.40;;;;;14.30;101710.00;;;;5067936;28;20230;-75
2023/03/20 03:20:23;;;;;;;13.02;7.20;;;;;14.20;101703.00;;;;5082785;28;20639;-75
2023/03/20 03:22:50;;;;;;;12.52;7.25;;;;;14.20;101698.00;;;;5086328;28;20207;-74
2023/03/20 03:25:24;;;;;;;16.55;7.38;;;;;14.10;101701.00;;;;5083777;28;20224;-75
2023/03/20 03:27:59;;;;;;;13.85;7.43;;;;;14.10;101703.00;;;;5086755;28;20194;-74
2023/03/20 03:30:30;;;;;;;10.75;6.80;;;;;14.10;101709.00;;;;5086085;28;20225;-74
2023/03/20 03:33:12;;;;;;;16.80;7.47;;;;;14.00;101705.00;;;;5086586;28;20209;-74
2023/03/20 03:35:41;;;;;;;11.00;6.13;;;;;14.00;101701.00;;;;5085913;28;20202;-75
2023/03/20 03:38:25;;;;;;;13.60;7.45;;;;;14.00;101689.00;;;;5086712;28;20229;-74
2023/03/20 03:41:05;;;;;;;10.57;6.70;;;;;13.90;101697.00;;;;5086485;28;20218;-75
2023/03/20 03:43:38;;;;;;;11.45;6.38;;;;;14.00;101702.00;;;;5086429;28;20197;-75
2023/03/20 03:46:11;;;;;;;13.43;7.38;;;;;13.90;101689.00;;;;5085192;28;20215;-75
2023/03/20 03:48:44;;;;;;;10.93;6.65;;;;;13.90;101686.00;;;;5085497;28;20678;-75
2023/03/20 03:51:15;;;;;;;15.10;8.05;;;;;13.80;101694.00;;;;5085822;28;20201;-74
2023/03/20 03:53:50;;;;;;;11.55;6.57;;;;;13.80;101691.00;;;;5073716;28;20193;-74
2023/03/20 03:56:23;;;;;;;10.60;6.95;;;;;13.80;101678.00;;;;5085358;28;20205;-75
2023/03/20 03:58:55;;;;;;;10.57;7.07;;;;;13.80;101674.00;;;;5084667;28;20198;-75
2023/03/20 04:01:26;;;;;;;12.70;6.80;;;;;13.80;101670.00;;;;5087371;28;20218;-75
2023/03/20 04:03:56;;;;;;;12.25;7.05;;;;;13.80;101662.00;;;;5082412;28;20206;-74
2023/03/20 04:06:25;;;;;;;12.60;7.30;;;;;13.80;101661.00;;;;5087876;28;20681;-75
2023/03/20 04:08:52;;;;;;;12.27;6.97;;;;;13.80;101653.00;;;;5092143;28;20193;-74
2023/03/20 04:11:23;;;;;;;11.45;7.00;;;;;13.70;101661.00;;;;5090705;28;20198;-74
2023/03/20 04:13:52;;;;;;;12.48;6.72;;;;;13.70;101660.00;;;;5088323;28;20206;-74
2023/03/20 04:16:21;;;;;;;10.02;6.70;;;;;13.70;101659.00;;;;5084731;28;20195;-74
2023/03/20 04:18:49;;;;;;;11.02;7.35;;;;;13.70;101652.00;;;;5087847;28;20209;-75
2023/03/20 04:21:16;;;;;;;11.88;6.88;;;;;13.70;101648.00;;;;5086535;28;20229;-75
2023/03/20 04:23:44;;;;;;;11.18;7.63;;;;;13.70;101641.00;;;;5090012;28;20930;-74
2023/03/20 04:26:11;;;;;;;11.85;7.63;;;;;13.70;101656.00;;;;5090414;28;20202;-75
2023/03/20 04:28:40;;;;;;;12.40;7.70;;;;;13.60;101650.00;;;;5088134;28;20222;-75
2023/03/20 04:31:07;;;;;;;11.00;7.75;;;;;13.60;101643.00;;;;5087561;28;20245;-75
2023/03/20 04:33:35;;;;;;;12.27;7.88;;;;;13.60;101647.00;;;;5090114;28;20194;-75
2023/03/20 04:36:02;;;;;;;12.80;7.35;;;;;13.60;101648.00;;;;5089547;28;20198;-75
2023/03/20 04:38:29;;;;;;;12.48;7.05;;;;;13.60;101648.00;;;;5088718;28;20282;-74
2023/03/20 04:40:56;;;;;;;10.43;6.85;;;;;13.60;101662.00;;;;5088936;28;20279;-74
2023/03/20 04:43:24;;;;;;;10.48;7.28;;;;;13.60;101661.00;;;;5090231;28;20213;-75
2023/03/20 04:45:52;;;;;;;9.73;7.53;;;;;13.60;101658.00;;;;5087269;28;20198;-74
2023/03/20 04:48:20;;;;;;;14.95;8.02;;;;;13.60;101658.00;;;;5089422;28;20205;-74
2023/03/20 04:50:49;;;;;;;11.70;7.13;;;;;13.60;101661.00;;;;5087896;28;20205;-75
2023/03/20 04:53:17;;;;;;;10.65;7.85;;;;;13.60;101659.00;;;;5089181;28;20205;-75
2023/03/20 04:55:46;;;;;;;11.63;7.75;;;;;13.60;101653.00;;;;5073506;28;20230;-74
2023/03/20 04:58:14;;;;;;;14.48;8.15;;;;;13.50;101658.00;;;;5083210;28;20275;-74
2023/03/20 05:00:41;;;;;;;11.55;7.43;;;;;13.50;101649.00;;;;5091013;28;20209;-75
2023/03/20 05:03:10;;;;;;;9.93;6.97;;;;;13.50;101645.00;;;;5088057;28;20191;-75
2023/03/20 05:05:37;;;;;;;9.15;6.75;;;;;13.50;101644.00;;;;5088059;28;20198;-75
2023/03/20 05:08:05;;;;;;;12.18;7.38;;;;;13.50;101636.00;;;;5091151;28;20202;-74
2023/03/20 05:10:33;;;;;;;11.32;7.57;;;;;13.50;101640.00;;;;5090877;28;20331;-74
2023/03/20 05:13:00;;;;;;;8.57;6.82;;;;;13.50;101645.00;;;;5071764;28;20203;-74
2023/03/20 05:15:27;;;;;;;11.68;6.95;;;;;13.50;101638.00;;;;5070493;28;20199;-74
2023/03/20 05:17:55;;;;;;;10.25;7.43;;;;;13.50;101636.00;;;;5080745;28;20299;-74
2023/03/20 05:20:23;;;;;;;10.23;7.32;;;;;13.50;101641.00;;;;5085078;28;20201;-75
2023/03/20 05:22:51;;;;;;;10.70;7.50;;;;;13.50;101633.00;;;;5086145;28;20229;-75
2023/03/20 05:25:19;;;;;;;12.27;7.63;;;;;13.50;101638.00;;;;5089635;28;20205;-75
2023/03/20 05:27:47;;;;;;;11.30;6.53;;;;;13.50;101641.00;;;;5089999;28;20198;-74
2023/03/20 05:30:15;;;;;;;10.73;6.13;;;;;13.50;101650.00;;;;5073269;28;20226;-74
2023/03/20 05:32:43;;;;;;;10.57;6.53;;;;;13.50;101643.00;;;;5087295;28;20209;-74
2023/03/20 05:35:11;;;;;;;11.35;6.88;;;;;13.50;101639.00;;;;5086058;28;20722;-74
2023/03/20 05:37:40;;;;;;;9.45;7.00;;;;;13.50;101633.00;;;;5084819;28;20209;-74
2023/03/20 05:40:10;;;;;;;10.45;6.47;;;;;13.50;101647.00;;;;5087824;28;21035;-75
2023/03/20 05:42:38;;;;;;;11.10;6.70;;;;;13.50;101643.00;;;;5089513;28;20229;-74
2023/03/20 05:45:05;;;;;;;9.05;6.50;;;;;13.50;101646.00;;;;5086113;28;20222;-74
2023/03/20 05:47:33;;;;;;;8.43;6.68;;;;;13.50;101652.00;;;;5089100;28;20205;-74
2023/03/20 05:50:00;;;;;;;8.75;6.55;;;;;13.50;101653.00;;;;5081585;28;20190;-74
2023/03/20 05:52:28;;;;;;;8.43;6.32;;;;;13.50;101651.00;;;;5076744;28;20191;-74
2023/03/20 05:54:56;;;;;;;14.18;7.30;;;;;13.50;101666.00;;;;5080007;28;20579;-74
2023/03/20 05:57:24;;;;;;;12.35;7.28;;;;;13.50;101663.00;;;;5084712;28;20203;-74
2023/03/20 05:59:51;;;;;;;13.50;7.15;;;;;13.50;101666.00;;;;5087194;28;20217;-74
2023/03/20 06:02:18;;;;;;;12.25;7.07;;;;;13.50;101672.00;;;;5088417;28;20226;-75
2023/03/20 06:04:46;;;;;;;8.90;6.68;;;;;13.50;101673.00;;;;5085282;28;20198;-74
2023/03/20 06:07:13;;;;;;;10.43;7.10;;;;;13.60;101674.00;;;;5076684;28;20673;-75
2023/03/20 06:09:41;;;;;;;17.08;6.70;;;;;13.60;101669.00;;;;5080413;28;20226;-75
2023/03/20 06:12:09;;;;;;;14.57;7.47;;;;;13.60;101677.00;;;;5082133;28;20208;-74
2023/03/20 06:14:37;;;;;;;9.70;6.90;;;;;13.60;101669.00;;;;5080913;28;20320;-74
2023/03/20 06:17:04;;;;;;;12.13;7.35;;;;;13.60;101682.00;;;;5087034;28;20198;-75
2023/03/20 06:19:31;;;;;;;12.63;6.47;;;;;13.60;101675.00;;;;5086582;28;20194;-75
2023/03/20 06:21:59;;;;;;;10.65;6.82;;;;;13.60;101665.00;;;;5084706;28;20222;-75
2023/03/20 06:24:26;;;;;;;8.23;6.40;;;;;13.60;101675.00;;;;5080096;28;20206;-75
2023/03/20 06:26:54;;;;;;;10.63;6.72;;;;;13.60;101676.00;;;;5082011;28;20224;-75
2023/03/20 06:29:23;;;;;;;9.80;7.10;;;;;13.60;101675.00;;;;5076852;28;20222;-75
2023/03/20 06:31:50;;;;;;;11.30;7.57;;;;;13.70;101674.00;;;;5084743;28;20214;-74
2023/03/20 06:34:17;;;;;;;10.48;6.60;;;;;13.70;101684.00;;;;5086876;28;20202;-75
2023/03/20 06:36:45;;;;;;;9.90;6.35;;;;;13.60;101686.00;;;;5081044;28;20194;-75
2023/03/20 06:39:13;;;;;;;11.93;7.22;;;;;13.60;101687.00;;;;5088439;28;20195;-75
2023/03/20 06:41:40;;;;;;;8.80;6.80;;;;;13.60;101689.00;;;;5085148;28;20225;-75
2023/03/20 06:44:07;;;;;;;13.73;7.03;;;;;13.60;101688.00;;;;5085052;28;20202;-75
2023/03/20 06:46:36;;;;;;;8.75;6.68;;;;;13.60;101686.00;;;;5089194;28;20206;-75
2023/03/20 06:49:03;;;;;;;10.57;6.75;;;;;13.60;101695.00;;;;5087383;28;20209;-75
2023/03/20 06:51:31;;;;;;;9.63;6.30;;;;;13.60;101694.00;;;;5087893;28;20729;-75
2023/03/20 06:53:58;;;;;;;9.30;6.65;;;;;13.60;101693.00;;;;5086031;28;20679;-75
2023/03/20 06:56:26;;;;;;;10.63;6.72;;;;;13.60;101698.00;;;;5081512;28;20186;-74
2023/03/20 06:58:53;;;;;;;12.20;6.80;;;;;13.60;101698.00;;;;5086801;28;20198;-75
2023/03/20 07:01:20;;;;;;;12.18;7.03;;;;;13.60;101694.00;;;;5087772;28;20198;-74
2023/03/20 07:03:49;;;;;;;11.77;7.35;;;;;13.60;101697.00;;;;5088936;28;20193;-74
2023/03/20 07:06:17;;;;;;;10.75;7.18;;;;;13.70;101703.00;;;;5088485;28;20203;-74
2023/03/20 07:08:45;;;;;;;13.30;7.22;;;;;13.70;101700.00;;;;5088746;28;20209;-74
2023/03/20 07:11:13;;;;;;;10.77;6.60;;;;;13.70;101696.00;;;;5085971;28;20191;-74
2023/03/20 07:13:40;;;;;;;12.18;7.25;;;;;13.70;101699.00;;;;5085838;28;20606;-74
2023/03/20 07:16:08;;;;;;;9.98;6.72;;;;;13.70;101706.00;;;;5088856;28;20205;-74
2023/03/20 07:18:36;;;;;;;9.88;6.22;;;;;13.70;101703.00;;;;5088698;28;20666;-74
2023/03/20 07:21:06;;;;;;;10.20;6.78;;;;;13.70;101714.00;;;;5088311;28;20206;-74
2023/03/20 07:23:35;;;;;;;11.80;6.30;;;;;13.70;101710.00;;;;5087133;28;20303;-75
2023/03/20 07:26:05;;;;;;;7.80;5.68;;;;;13.70;101709.00;;;;5087974;28;20202;-75
2023/03/20 07:28:32;;;;;;;13.43;5.95;;;;;13.70;101710.00;;;;5087364;28;20241;-74
2023/03/20 07:31:00;;;;;;;13.55;6.55;;;;;13.80;101709.00;;;;5088701;28;20218;-74
2023/03/20 07:33:27;;;;;;;12.50;6.00;;;;;13.80;101709.00;;;;5088745;28;20195;-74
2023/03/20 07:35:55;;;;;;;9.63;5.38;;;;;13.80;101711.00;;;;5084898;28;20202;-75
2023/03/20 07:38:24;;;;;;;10.00;6.30;;;;;13.80;101719.00;;;;5087178;28;20202;-75
2023/03/20 07:40:54;;;;;;;11.02;6.45;;;;;13.80;101713.00;;;;5086523;28;20221;-74
2023/03/20 07:43:22;;;;;;;7.45;5.20;;;;;13.80;101711.00;;;;5088138;28;20602;-75
2023/03/20 07:45:49;;;;;;;6.82;5.57;;;;;13.80;101709.00;;;;5069120;28;20207;-75
2023/03/20 07:48:16;;;;;;;8.02;5.40;;;;;13.80;101710.00;;;;5068090;28;20669;-74
2023/03/20 07:50:43;;;;;;;9.50;5.80;;;;;13.90;101714.00;;;;5076587;28;20206;-75
2023/03/20 07:53:11;;;;;;;13.68;6.40;;;;;13.90;101709.00;;;;5087030;28;20206;-74
2023/03/20 07:55:39;;;;;;;10.00;5.00;;;;;13.90;101703.00;;;;5087296;28;20197;-74
2023/03/20 07:58:07;;;;;;;9.73;4.65;;;;;14.00;101711.00;;;;5084935;28;20198;-74
2023/03/20 08:00:35;;;;;;;8.75;5.38;;;;;14.00;101716.00;;;;5083610;28;20617;-75
2023/03/20 08:03:02;;;;;;;9.30;5.18;;;;;14.00;101706.00;;;;5080667;28;20237;-75
2023/03/20 08:05:30;;;;;;;8.23;5.22;;;;;14.10;101702.00;;;;5079467;28;20193;-75
2023/03/20 08:07:57;;;;;;;7.38;5.07;;;;;14.10;101709.00;;;;5082783;28;21158;-75
2023/03/20 08:10:24;;;;;;;11.93;5.90;;;;;14.10;101699.00;;;;5085444;28;20210;-74
2023/03/20 08:12:53;;;;;;;8.73;5.25;;;;;14.10;101714.00;;;;5073962;28;20202;-75
2023/03/20 08:15:20;;;;;;;7.93;5.32;;;;;14.20;101704.00;;;;5086778;28;20191;-74
2023/03/20 08:17:48;;;;;;;7.47;4.82;;;;;14.20;101700.00;;;;5086405;28;20199;-75
2023/03/20 08:20:16;;;;;;;9.93;5.13;;;;;14.30;101704.00;;;;5070047;28;20209;-75
2023/03/20 08:22:45;;;;;;;11.80;5.32;;;;;14.30;101702.00;;;;5087504;28;20249;-75
2023/03/20 08:25:12;;;;;;;12.63;5.30;;;;;14.30;101702.00;;;;5087661;28;20190;-75
2023/03/20 08:27:40;;;;;;;9.10;5.40;;;;;14.40;101702.00;;;;5087886;28;20202;-75
2023/03/20 08:30:10;;;;;;;10.75;4.95;;;;;14.40;101701.00;;;;5083554;28;20252;-75
2023/03/20 08:32:37;;;;;;;12.63;4.57;;;;;14.40;101700.00;;;;5084069;28;20222;-76
2023/03/20 08:35:05;;;;;;;8.45;4.80;;;;;14.50;101704.00;;;;5084950;28;20199;-76
2023/03/20 08:37:33;;;;;;;7.18;4.80;;;;;14.50;101702.00;;;;5085369;28;20213;-76
2023/03/20 08:40:00;;;;;;;8.32;4.50;;;;;14.50;101697.00;;;;5085239;28;20229;-77
2023/03/20 08:42:27;;;;;;;8.98;4.72;;;;;14.60;101691.00;;;;5082968;28;20225;-75
2023/03/20 08:44:54;;;;;;;6.55;4.68;;;;;14.60;101698.00;;;;5085691;28;20235;-74
2023/03/20 08:47:23;;;;;;;11.35;4.25;;;;;14.60;101697.00;;;;5086005;28;20213;-75
2023/03/20 08:49:51;;;;;;;6.32;4.60;;;;;14.70;101699.00;;;;5085148;28;20214;-74
2023/03/20 08:52:18;;;;;;;7.20;4.22;;;;;14.70;101703.00;;;;5079930;28;20205;-75
2023/03/20 08:54:45;;;;;;;6.63;4.05;;;;;14.80;101701.00;;;;5086492;28;20204;-75
2023/03/20 08:57:13;;;;;;;8.20;4.53;;;;;14.80;101695.00;;;;5086006;28;20229;-75
2023/03/20 08:59:40;;;;;;;8.00;4.60;;;;;14.80;101705.00;;;;5084465;28;20198;-75
2023/03/20 09:02:09;;;;;;;6.90;4.40;;;;;14.90;101708.00;;;;5088789;28;20199;-75
2023/03/20 09:04:38;;;;;;;5.80;4.07;;;;;14.90;101706.00;;;;5088857;28;20198;-75
2023/03/20 09:07:06;;;;;;;8.30;4.20;;;;;14.90;101707.00;;;;5090021;28;20202;-75
2023/03/20 09:09:33;;;;;;;7.07;3.90;;;;;14.90;101712.00;;;;5081953;28;20210;-76
2023/03/20 09:12:01;;;;;;;7.28;4.68;;;;;14.90;101710.00;;;;5088878;28;20205;-77
2023/03/20 09:14:29;;;;;;;9.02;4.20;;;;;15.00;101722.00;;;;5088300;28;20205;-76
2023/03/20 09:16:56;;;;;;;7.72;4.43;;;;;15.00;101727.00;;;;5084527;28;20221;-76
2023/03/20 09:19:23;;;;;;;6.63;3.88;;;;;15.00;101721.00;;;;5090340;28;20198;-76
2023/03/20 09:21:52;;;;;;;7.32;4.13;;;;;15.00;101726.00;;;;5080945;28;20202;-75
2023/03/20 09:24:19;;;;;;;9.57;4.10;;;;;15.00;101717.00;;;;5090216;28;20225;-76
2023/03/20 09:26:46;;;;;;;9.10;3.95;;;;;15.00;101723.00;;;;5088551;28;20198;-76
2023/03/20 09:29:14;;;;;;;9.30;4.18;;;;;15.00;101724.00;;;;5088908;28;20600;-76
2023/03/20 09:31:41;;;;;;;5.60;3.58;;;;;15.00;101726.00;;;;5087820;28;20697;-76
2023/03/20 09:34:08;;;;;;;7.90;4.07;;;;;15.00;101729.00;;;;5088864;28;20210;-76
2023/03/20 09:36:36;;;;;;;7.18;3.92;;;;;15.10;101719.00;;;;5089697;28;20198;-76
2023/03/20 09:39:05;;;;;;;6.05;3.30;;;;;15.10;101724.00;;;;5083445;28;20570;-77
2023/03/20 09:41:39;;;;;;;6.68;3.80;;;;;15.10;101722.00;;;;5088175;28;20202;-76
2023/03/20 09:44:17;;;;;;;8.50;4.20;;;;;15.20;101720.00;;;;5077585;28;20237;-76
2023/03/20 09:47:00;;;;;;;8.65;3.42;;;;;15.20;101718.00;;;;5090120;28;20222;-76
2023/03/20 09:49:39;;;;;;;9.85;3.60;;;;;15.30;101724.00;;;;5086249;28;20287;-76
2023/03/20 09:52:18;;;;;;;4.78;3.50;;;;;15.30;101716.00;;;;5087442;28;20201;-75
2023/03/20 09:54:50;;;;;;;6.05;2.97;;;;;15.40;101710.00;;;;5089137;28;20205;-76
2023/03/20 09:57:22;;;;;;;8.38;3.15;;;;;15.50;101708.00;;;;5077784;28;20194;-77
2023/03/20 09:59:53;;;;;;;7.07;3.55;;;;;15.50;101712.00;;;;5087288;28;20206;-76
2023/03/20 10:02:26;;;;;;;11.10;3.22;;;;;15.50;101708.00;;;;5082208;28;20194;-76
2023/03/20 10:04:55;;;;;;;4.72;2.63;;;;;15.60;101707.00;;;;5086315;28;20601;-76
2023/03/20 10:07:23;;;;;;;5.00;2.88;;;;;15.60;101709.00;;;;5088313;28;20190;-76
2023/03/20 10:09:52;;;;;;;4.50;3.03;;;;;15.70;101706.00;;;;5086082;28;20202;-75
2023/03/20 10:12:47;;;;;;;6.68;3.03;;;;;15.60;101708.00;;;;5083244;28;20206;-75
2023/03/20 10:15:20;;;;;;;5.35;3.17;;;;;15.80;101708.00;;;;5088445;28;20190;-76
2023/03/20 10:17:58;;;;;;;5.72;2.65;;;;;15.80;101708.00;;;;5079143;28;20210;-76
2023/03/20 10:20:32;;;;;;;5.72;2.60;;;;;15.90;101707.00;;;;5076984;28;20198;-76
2023/03/20 10:23:06;;;;;;;6.07;2.92;;;;;15.90;101707.00;;;;5085258;28;20226;-76
2023/03/20 10:25:39;;;;;;;6.53;2.88;;;;;15.90;101705.00;;;;5087352;28;20194;-76
2023/03/20 10:28:13;;;;;;;6.45;2.63;;;;;15.90;101707.00;;;;5075150;28;20974;-74
2023/03/20 10:30:55;;;;;;;6.00;3.28;;;;;15.90;101699.00;;;;5087610;28;20204;-76
2023/03/20 10:33:42;;;;;;;5.00;2.88;;;;;16.00;101704.00;;;;5087994;28;20191;-76
2023/03/20 10:36:24;;;;;;;7.15;2.83;;;;;16.00;101694.00;;;;5083176;28;20190;-76
2023/03/20 10:38:57;;;;;;;4.43;2.75;;;;;16.10;101701.00;;;;5080331;28;20205;-76
2023/03/20 10:41:29;;;;;;;8.15;3.53;;;;;16.10;101693.00;;;;5086930;28;20213;-76
2023/03/20 10:43:58;;;;;;;5.70;3.67;;;;;16.10;101698.00;;;;5087528;28;20699;-76
2023/03/20 10:46:30;;;;;;;5.18;2.90;;;;;16.10;101699.00;;;;5087834;28;20202;-76
2023/03/20 10:49:01;;;;;;;9.93;3.55;;;;;16.10;101701.00;;;;5086403;28;20213;-77
2023/03/20 10:51:37;;;;;;;6.20;3.17;;;;;16.10;101702.00;;;;5084473;28;20194;-76
2023/03/20 10:54:21;;;;;;;8.77;3.20;;;;;16.10;101690.00;;;;5084787;28;20701;-76
2023/03/20 10:56:54;;;;;;;5.25;3.20;;;;;16.10;101692.00;;;;5088986;28;20201;-76
2023/03/20 10:59:24;;;;;;;5.97;3.00;;;;;16.10;101691.00;;;;5087828;28;20213;-76
2023/03/20 11:01:52;;;;;;;5.90;3.63;;;;;16.10;101697.00;;;;5087287;28;20194;-76
2023/03/20 11:04:19;;;;;;;7.95;3.53;;;;;16.20;101695.00;;;;5085968;28;20237;-75
2023/03/20 11:06:52;;;;;;;5.53;3.25;;;;;16.20;101689.00;;;;5089215;28;20198;-76
2023/03/20 11:09:22;;;;;;;5.60;3.03;;;;;16.20;101697.00;;;;5075439;28;20649;-76
2023/03/20 11:11:55;;;;;;;8.18;3.65;;;;;16.10;101692.00;;;;5078589;28;20242;-76
2023/03/20 11:14:25;;;;;;;7.03;3.88;;;;;16.10;101692.00;;;;5085534;28;20202;-76
2023/03/20 11:16:54;;;;;;;7.55;3.67;;;;;16.10;101681.00;;;;5072321;28;20252;-76
2023/03/20 11:19:23;;;;;;;6.97;3.45;;;;;16.10;101686.00;;;;5085666;28;20201;-77
2023/03/20 11:21:54;;;;;;;8.80;3.95;;;;;16.00;101681.00;;;;5087210;28;20198;-76
2023/03/20 11:24:34;;;;;;;7.30;3.70;;;;;16.00;101676.00;;;;5085827;28;20696;-76
2023/03/20 11:27:08;;;;;;;5.88;3.65;;;;;16.00;101680.00;;;;5083936;28;20559;-76
2023/03/20 11:29:36;;;;;;;5.97;3.70;;;;;16.10;101671.00;;;;5085984;28;20722;-76
2023/03/20 11:32:08;;;;;;;7.93;4.00;;;;;16.10;101672.00;;;;5085596;28;20224;-75
2023/03/20 11:34:39;;;;;;;9.32;3.78;;;;;16.00;101665.00;;;;5083683;28;20664;-74
2023/03/20 11:37:21;;;;;;;5.45;3.83;;;;;16.00;101664.00;;;;5084747;28;20194;-76
2023/03/20 11:39:59;;;;;;;9.40;4.55;;;;;16.00;101662.00;;;;5086549;28;20576;-74
2023/03/20 11:42:30;;;;;;;6.10;3.90;;;;;16.00;101646.00;;;;5083099;28;20206;-73
2023/03/20 11:45:03;;;;;;;7.93;4.35;;;;;16.00;101651.00;;;;5083045;28;20210;-74
2023/03/20 11:47:34;;;;;;;9.45;4.60;;;;;16.10;101649.00;;;;5087600;28;20198;-73
2023/03/20 11:50:04;;;;;;;5.65;3.75;;;;;16.10;101641.00;;;;5087623;28;20652;-73
2023/03/20 11:52:33;;;;;;;5.85;4.30;;;;;16.10;101645.00;;;;5088386;28;20202;-75
2023/03/20 11:55:05;;;;;;;9.10;4.88;;;;;16.00;101642.00;;;;5086019;28;20202;-75
2023/03/20 11:57:36;;;;;;;6.80;4.63;;;;;16.00;101639.00;;;;5087864;28;20198;-74
2023/03/20 12:00:15;;;;;;;11.40;5.45;;;;;16.00;101637.00;;;;5087257;28;20217;-75
2023/03/20 12:02:44;;;;;;;10.68;5.05;;;;;16.00;101642.00;;;;5088042;28;20952;-74
2023/03/20 12:05:30;;;;;;;6.90;3.95;;;;;15.90;101639.00;;;;5088180;28;20248;-76
2023/03/20 12:08:01;;;;;;;9.65;4.57;;;;;16.10;101633.00;;;;5085933;28;20566;-75
2023/03/20 12:10:33;;;;;;;8.65;5.50;;;;;16.10;101634.00;;;;5087344;28;20198;-75
2023/03/20 12:13:06;;;;;;;9.88;5.22;;;;;16.10;101631.00;;;;5068610;28;20213;-75
2023/03/20 12:15:36;;;;;;;6.53;4.93;;;;;16.10;101630.00;;;;5067998;28;20544;-74
2023/03/20 12:18:08;;;;;;;6.32;5.18;;;;;16.20;101633.00;;;;5082432;28;20201;-75
2023/03/20 12:20:41;;;;;;;7.78;5.00;;;;;16.20;101637.00;;;;5087746;28;20766;-74
2023/03/20 12:23:13;;;;;;;9.75;4.93;;;;;16.10;101637.00;;;;5088580;28;20671;-74